createdAt,value
2022-09-05T00:00:19.600Z,53.47
2022-09-05T00:03:21.951Z,53.28
2022-09-05T00:06:14.971Z,53.56
2022-09-05T00:09:13.811Z,53.27
2022-09-05T00:12:08.826Z,53.51
2022-09-05T00:15:19.269Z,53.57
2022-09-05T00:22:23.763Z,53.52
2022-09-05T00:24:34.204Z,53.68
2022-09-05T00:25:31.644Z,54.05
2022-09-05T00:28:31.579Z,53.76
2022-09-05T00:31:53.610Z,54.17
2022-09-05T00:35:09.199Z,54.07
2022-09-05T00:38:10.807Z,53.70
2022-09-05T00:41:05.219Z,53.72
2022-09-05T00:43:56.960Z,53.31
2022-09-05T00:46:52.393Z,53.66
2022-09-05T00:49:46.487Z,53.61
2022-09-05T00:52:42.671Z,53.91
2022-09-05T00:55:49.507Z,53.75
2022-09-05T00:59:03.350Z,53.69
2022-09-05T01:02:00.600Z,53.41
2022-09-05T01:04:59.371Z,53.61
2022-09-05T01:08:14.740Z,53.19
2022-09-05T01:11:13.398Z,53.58
2022-09-05T01:14:13.452Z,53.27
2022-09-05T01:17:25.257Z,53.33
2022-09-05T01:20:32.069Z,53.49
2022-09-05T01:23:44.927Z,53.16
2022-09-05T01:27:01.142Z,53.28
2022-09-05T01:29:56.755Z,53.66
2022-09-05T01:32:52.025Z,53.58
2022-09-05T01:36:11.767Z,53.56
2022-09-05T01:40:10.550Z,53.70
2022-09-05T01:42:38.380Z,53.84
2022-09-05T01:45:39.421Z,53.86
2022-09-05T01:48:37.235Z,53.67
2022-09-05T01:51:39.938Z,53.73
2022-09-05T01:54:40.920Z,53.82
2022-09-05T01:57:41.252Z,53.79
2022-09-05T02:00:36.668Z,54.12
2022-09-05T02:03:39.707Z,54.33
2022-09-05T02:06:43.952Z,54.27
2022-09-05T02:09:56.902Z,54.04
2022-09-05T02:13:05.067Z,54.20
2022-09-05T02:16:06.374Z,54.49
2022-09-05T02:19:08.827Z,54.29
2022-09-05T02:22:02.833Z,54.54
2022-09-05T02:25:25.611Z,54.57
2022-09-05T02:28:17.131Z,54.43
2022-09-05T02:31:19.730Z,54.40
2022-09-05T02:34:18.741Z,54.70
2022-09-05T02:37:15.533Z,54.76
2022-09-05T02:45:14.076Z,54.50
2022-09-05T02:45:21.004Z,54.53
2022-09-05T02:46:53.774Z,54.92
2022-09-05T02:52:43.906Z,54.79
2022-09-05T02:57:34.407Z,54.74
2022-09-05T02:57:39.465Z,54.58
2022-09-05T03:00:09.872Z,54.89
2022-09-05T03:03:14.089Z,54.87
2022-09-05T03:06:13.429Z,55.06
2022-09-05T03:09:22.705Z,54.62
2022-09-05T03:12:43.267Z,55.03
2022-09-05T03:16:04.508Z,55.12
2022-09-05T03:19:26.849Z,54.77
2022-09-05T03:22:47.728Z,54.82
2022-09-05T03:26:15.229Z,54.76
2022-09-05T03:29:31.842Z,54.87
2022-09-05T03:32:51.626Z,54.96
2022-09-05T03:36:16.788Z,54.90
2022-09-05T03:39:34.574Z,54.88
2022-09-05T03:42:49.709Z,54.86
2022-09-05T03:46:00.827Z,54.79
2022-09-05T03:51:18.428Z,54.61
2022-09-05T03:57:16.807Z,54.86
2022-09-05T03:57:20.896Z,54.70
2022-09-05T03:59:48.049Z,54.72
2022-09-05T04:08:06.828Z,54.69
2022-09-05T04:08:16.468Z,54.20
2022-09-05T04:09:48.920Z,54.54
2022-09-05T04:12:40.833Z,54.33
2022-09-05T04:15:37.151Z,54.65
2022-09-05T04:18:36.068Z,54.38
2022-09-05T04:21:29.192Z,54.37
2022-09-05T04:24:30.227Z,54.54
2022-09-05T04:27:28.663Z,54.49
2022-09-05T04:30:40.548Z,54.52
2022-09-05T04:33:37.338Z,54.65
2022-09-05T04:36:31.031Z,54.38
2022-09-05T04:39:30.885Z,54.60
2022-09-05T04:42:25.940Z,54.39
2022-09-05T04:45:24.409Z,54.52
2022-09-05T04:48:20.170Z,54.37
2022-09-05T04:51:27.316Z,54.63
2022-09-05T04:54:27.606Z,54.63
2022-09-05T04:57:31.379Z,54.68
2022-09-05T05:05:44.995Z,54.46
2022-09-05T05:06:08.724Z,54.53
2022-09-05T05:07:07.618Z,54.82
2022-09-05T05:10:40.507Z,54.57
2022-09-05T05:18:02.174Z,54.96
2022-09-05T05:18:15.971Z,54.50
2022-09-05T05:20:40.784Z,53.80
2022-09-05T05:23:08.951Z,54.41
2022-09-05T05:26:02.336Z,54.49
2022-09-05T05:28:59.722Z,54.57
2022-09-05T05:31:54.261Z,54.53
2022-09-05T05:34:51.367Z,54.61
2022-09-05T05:37:47.038Z,54.42
2022-09-05T05:40:50.497Z,54.59
2022-09-05T05:43:46.437Z,54.53
2022-09-05T05:46:42.338Z,54.37
2022-09-05T05:49:46.323Z,54.31
2022-09-05T05:52:56.228Z,54.27
2022-09-05T05:56:05.986Z,54.34
2022-09-05T05:59:33.739Z,54.30
2022-09-05T06:03:09.956Z,54.12
2022-09-05T06:06:23.454Z,54.47
2022-09-05T06:14:49.120Z,54.28
2022-09-05T06:14:58.707Z,54.24
2022-09-05T06:17:12.529Z,53.63
2022-09-05T06:22:04.681Z,53.62
2022-09-05T06:24:03.537Z,53.70
2022-09-05T06:27:33.739Z,53.72
2022-09-05T06:30:25.399Z,53.33
2022-09-05T06:33:25.076Z,53.20
2022-09-05T06:36:36.256Z,53.30
2022-09-05T06:39:46.555Z,53.05
2022-09-05T06:42:55.171Z,52.92
2022-09-05T06:46:06.872Z,52.93
2022-09-05T06:49:30.322Z,52.96
2022-09-05T06:52:42.185Z,52.35
2022-09-05T06:55:54.927Z,52.11
2022-09-05T06:59:35.951Z,52.20
2022-09-05T07:02:57.986Z,51.13
2022-09-05T07:05:50.980Z,51.39
2022-09-05T07:08:54.098Z,51.08
2022-09-05T07:11:55.788Z,50.97
2022-09-05T07:14:56.697Z,50.62
2022-09-05T07:18:13.500Z,50.86
2022-09-05T07:21:16.431Z,50.01
2022-09-05T07:24:14.357Z,50.52
2022-09-05T07:27:41.945Z,50.92
2022-09-05T07:30:51.822Z,50.71
2022-09-05T07:33:43.830Z,50.71
2022-09-05T07:36:40.848Z,49.96
2022-09-05T07:39:35.101Z,49.54
2022-09-05T07:42:31.084Z,49.26
2022-09-05T07:45:28.311Z,48.34
2022-09-05T07:48:34.359Z,48.96
2022-09-05T07:56:50.218Z,49.00
2022-09-05T07:57:02.494Z,49.24
2022-09-05T07:57:52.987Z,49.02
2022-09-05T08:00:52.527Z,48.21
2022-09-05T08:03:44.605Z,48.02
2022-09-05T08:07:34.759Z,48.46
2022-09-05T08:10:06.070Z,48.02
2022-09-05T08:13:24.262Z,47.74
2022-09-05T08:16:17.253Z,48.09
2022-09-05T08:19:31.799Z,48.72
2022-09-05T08:22:26.498Z,48.32
2022-09-05T08:25:19.700Z,48.28
2022-09-05T08:28:19.656Z,47.72
2022-09-05T08:31:14.523Z,48.12
2022-09-05T08:34:11.927Z,47.82
2022-09-05T08:37:03.822Z,47.67
2022-09-05T08:40:11.146Z,46.88
2022-09-05T08:45:56.547Z,46.68
2022-09-05T08:46:41.285Z,46.87
2022-09-05T08:50:01.776Z,46.05
2022-09-05T08:53:26.830Z,46.21
2022-09-05T08:56:31.943Z,44.55
2022-09-05T09:00:06.332Z,45.33
2022-09-05T09:03:18.832Z,45.37
2022-09-05T09:06:21.680Z,45.27
2022-09-05T09:09:18.767Z,44.11
2022-09-05T09:12:25.678Z,44.59
2022-09-05T09:15:22.363Z,44.34
2022-09-05T09:18:16.907Z,43.37
2022-09-05T09:21:26.457Z,44.44
2022-09-05T09:24:34.014Z,42.80
2022-09-05T09:27:47.425Z,42.12
2022-09-05T09:30:48.192Z,43.10
2022-09-05T09:33:46.245Z,41.56
2022-09-05T09:36:45.130Z,41.33
2022-09-05T09:39:43.628Z,41.68
2022-09-05T09:42:45.510Z,42.44
2022-09-05T09:45:55.467Z,42.59
2022-09-05T09:49:22.571Z,42.46
2022-09-05T09:52:36.166Z,41.78
2022-09-05T09:55:57.887Z,41.36
2022-09-05T09:59:15.303Z,41.17
2022-09-05T10:04:12.525Z,40.75
2022-09-05T10:10:35.785Z,40.16
2022-09-05T10:10:46.168Z,40.04
2022-09-05T10:13:16.331Z,40.39
2022-09-05T10:16:47.090Z,40.16
2022-09-05T10:20:11.324Z,40.18
2022-09-05T10:23:34.188Z,38.89
2022-09-05T10:26:54.092Z,38.72
2022-09-05T10:29:52.650Z,38.76
2022-09-05T10:35:13.252Z,37.35
2022-09-05T10:36:27.898Z,38.06
2022-09-05T10:39:18.997Z,37.30
2022-09-05T10:42:15.786Z,37.52
2022-09-05T10:45:14.077Z,37.25
2022-09-05T10:48:14.861Z,37.12
2022-09-05T10:51:11.438Z,37.02
2022-09-05T10:54:38.036Z,36.65
2022-09-05T10:57:38.314Z,36.24
2022-09-05T11:02:22.589Z,35.01
2022-09-05T11:03:57.295Z,34.83
2022-09-05T11:06:59.656Z,34.05
2022-09-05T11:10:02.545Z,34.45
2022-09-05T11:13:12.524Z,34.24
2022-09-05T11:16:18.177Z,33.55
2022-09-05T11:19:16.047Z,34.44
2022-09-05T11:22:22.756Z,33.98
2022-09-05T11:25:28.179Z,32.84
2022-09-05T11:28:49.369Z,33.08
2022-09-05T11:34:21.114Z,32.94
2022-09-05T11:39:56.071Z,32.23
2022-09-05T11:40:02.339Z,32.33
2022-09-05T11:42:42.442Z,32.53
2022-09-05T11:46:11.049Z,33.09
2022-09-05T11:49:32.640Z,32.31
2022-09-05T11:52:53.901Z,32.04
2022-09-05T11:56:28.746Z,32.06
2022-09-05T11:59:51.074Z,31.70
2022-09-05T12:07:26.369Z,32.06
2022-09-05T12:10:46.446Z,31.78
2022-09-05T12:13:48.165Z,31.86
2022-09-05T12:16:57.926Z,30.93
2022-09-05T12:19:59.177Z,30.96
2022-09-05T12:22:59.135Z,30.43
2022-09-05T12:27:41.162Z,31.07
2022-09-05T12:29:34.816Z,30.68
2022-09-05T12:35:47.034Z,30.38
2022-09-05T12:36:12.860Z,29.95
2022-09-05T12:41:01.006Z,30.47
2022-09-05T12:41:45.125Z,31.49
2022-09-05T12:42:24.158Z,29.93
2022-09-05T12:45:24.126Z,30.20
2022-09-05T12:48:38.904Z,29.05
2022-09-05T12:51:46.705Z,29.90
2022-09-05T12:54:46.416Z,29.22
2022-09-05T13:02:27.785Z,28.48
2022-09-05T13:03:09.165Z,28.59
2022-09-05T13:04:17.942Z,29.29
2022-09-05T13:07:12.673Z,28.69
2022-09-05T13:12:45.267Z,28.28
2022-09-05T13:14:55.449Z,29.40
2022-09-05T13:16:39.592Z,28.55
2022-09-05T13:19:37.546Z,28.89
2022-09-05T13:22:29.368Z,29.70
2022-09-05T13:25:25.097Z,29.76
2022-09-05T13:28:17.788Z,29.07
2022-09-05T13:37:55.761Z,29.21
2022-09-05T13:38:07.594Z,29.00
2022-09-05T13:38:28.870Z,28.75
2022-09-05T13:40:58.354Z,28.88
2022-09-05T13:43:48.794Z,29.10
2022-09-05T13:46:48.360Z,28.33
2022-09-05T13:49:44.889Z,28.29
2022-09-05T13:52:40.553Z,27.81
2022-09-05T13:55:43.454Z,26.81
2022-09-05T13:58:42.814Z,26.17
2022-09-05T14:02:26.397Z,25.90
2022-09-05T14:05:35.573Z,26.64
2022-09-05T14:09:35.250Z,26.43
2022-09-05T14:12:06.925Z,26.03
2022-09-05T14:15:10.608Z,27.97
2022-09-05T14:18:20.641Z,28.26
2022-09-05T14:21:17.963Z,28.29
2022-09-05T14:24:16.836Z,28.01
2022-09-05T14:27:17.290Z,28.29
2022-09-05T14:32:14.429Z,26.95
2022-09-05T14:37:36.029Z,26.53
2022-09-05T14:37:50.882Z,27.35
2022-09-05T14:40:29.686Z,27.85
2022-09-05T14:43:47.737Z,26.79
2022-09-05T14:47:02.681Z,27.36
2022-09-05T14:49:58.920Z,26.80
2022-09-05T14:52:35.477Z,28.08
2022-09-05T14:55:21.012Z,28.73
2022-09-05T15:02:42.400Z,28.44
2022-09-05T15:02:50.647Z,29.07
2022-09-05T15:06:59.786Z,29.97
2022-09-05T15:12:14.875Z,29.75
2022-09-05T15:12:39.630Z,28.91
2022-09-05T15:15:25.820Z,29.82
2022-09-05T15:18:02.144Z,28.67
2022-09-05T15:20:37.584Z,29.72
2022-09-05T15:23:16.453Z,30.78
2022-09-05T15:25:51.354Z,30.75
2022-09-05T15:28:32.665Z,30.33
2022-09-05T15:31:08.269Z,30.08
2022-09-05T15:33:44.156Z,30.82
2022-09-05T15:36:31.877Z,31.38
2022-09-05T15:39:23.630Z,30.92
2022-09-05T15:42:13.558Z,30.89
2022-09-05T15:45:08.572Z,31.20
2022-09-05T15:47:41.830Z,31.24
2022-09-05T15:50:19.030Z,31.43
2022-09-05T15:52:56.186Z,31.94
2022-09-05T15:55:30.036Z,31.99
2022-09-05T15:58:06.308Z,32.13
2022-09-05T16:00:51.285Z,31.74
2022-09-05T16:04:01.189Z,30.11
2022-09-05T16:10:33.694Z,30.50
2022-09-05T16:10:47.083Z,32.30
2022-09-05T16:20:34.570Z,32.72
2022-09-05T16:23:18.225Z,32.21
2022-09-05T16:23:26.204Z,32.14
2022-09-05T16:24:08.137Z,32.53
2022-09-05T16:26:46.702Z,32.32
2022-09-05T16:29:26.234Z,32.14
2022-09-05T16:32:18.385Z,32.61
2022-09-05T16:34:57.437Z,32.71
2022-09-05T16:37:38.870Z,32.78
2022-09-05T16:40:21.485Z,32.73
2022-09-05T16:42:57.173Z,32.66
2022-09-05T16:45:39.730Z,32.75
2022-09-05T16:48:32.638Z,32.74
2022-09-05T16:51:16.172Z,32.58
2022-09-05T16:53:59.120Z,32.83
2022-09-05T16:56:36.011Z,32.87
2022-09-05T16:59:13.522Z,32.94
2022-09-05T17:02:07.428Z,33.18
2022-09-05T17:05:06.693Z,33.75
2022-09-05T17:08:00.532Z,33.19
2022-09-05T17:10:42.278Z,33.16
2022-09-05T17:13:32.206Z,33.18
2022-09-05T17:16:06.681Z,33.82
2022-09-05T17:18:42.920Z,34.41
2022-09-05T17:22:55.345Z,34.12
2022-09-05T17:29:18.002Z,34.34
2022-09-05T17:29:32.868Z,33.96
2022-09-05T17:33:19.123Z,34.53
2022-09-05T17:36:16.821Z,34.73
2022-09-05T17:38:59.676Z,34.55
2022-09-05T17:41:55.258Z,34.98
2022-09-05T17:44:30.301Z,35.10
2022-09-05T17:47:15.280Z,35.13
2022-09-05T17:49:46.910Z,35.35
2022-09-05T17:52:24.865Z,35.62
2022-09-05T17:54:57.709Z,35.68
2022-09-05T17:57:41.491Z,35.99
2022-09-05T18:00:49.570Z,36.33
2022-09-05T18:04:16.532Z,38.00
2022-09-05T18:07:00.396Z,37.39
2022-09-05T18:13:13.191Z,37.11
2022-09-05T18:16:12.421Z,38.27
2022-09-05T18:19:28.632Z,38.36
2022-09-05T18:21:53.185Z,39.06
2022-09-05T18:24:36.340Z,39.51
2022-09-05T18:27:43.689Z,39.55
2022-09-05T18:30:29.959Z,39.42
2022-09-05T18:33:53.537Z,39.21
2022-09-05T18:36:36.397Z,38.59
2022-09-05T18:39:43.568Z,38.45
2022-09-05T18:42:33.450Z,38.76
2022-09-05T18:45:16.034Z,39.37
2022-09-05T18:47:58.854Z,39.77
2022-09-05T18:50:36.382Z,39.31
2022-09-05T18:53:25.218Z,39.12
2022-09-05T18:56:20.689Z,39.63
2022-09-05T18:59:12.468Z,39.61
2022-09-05T19:01:58.062Z,39.38
2022-09-05T19:04:41.670Z,39.25
2022-09-05T19:07:22.770Z,39.27
2022-09-05T19:10:34.917Z,39.16
2022-09-05T19:13:01.314Z,39.37
2022-09-05T19:15:48.200Z,39.71
2022-09-05T19:18:26.095Z,39.92
2022-09-05T19:21:12.075Z,39.94
2022-09-05T19:23:51.118Z,39.99
2022-09-05T19:26:24.783Z,40.01
2022-09-05T19:36:51.101Z,40.10
2022-09-05T19:37:07.200Z,40.26
2022-09-05T19:37:09.248Z,40.29
2022-09-05T19:37:48.822Z,40.82
2022-09-05T19:45:39.394Z,40.85
2022-09-05T19:47:33.802Z,40.93
2022-09-05T19:47:44.709Z,40.59
2022-09-05T19:49:11.131Z,41.38
2022-09-05T19:51:44.468Z,41.29
2022-09-05T19:54:31.633Z,41.20
2022-09-05T19:57:06.552Z,41.03
2022-09-05T19:59:39.272Z,41.68
2022-09-05T20:02:20.363Z,41.43
2022-09-05T20:04:55.184Z,42.07
2022-09-05T20:07:29.992Z,41.89
2022-09-05T20:10:05.919Z,42.13
2022-09-05T20:12:39.673Z,42.17
2022-09-05T20:15:25.244Z,41.96
2022-09-05T20:18:24.509Z,42.64
2022-09-05T20:21:07.376Z,42.23
2022-09-05T20:23:43.525Z,42.40
2022-09-05T20:26:18.236Z,42.27
2022-09-05T20:28:54.786Z,42.62
2022-09-05T20:31:33.209Z,42.41
2022-09-05T20:34:14.941Z,43.06
2022-09-05T20:43:09.820Z,43.16
2022-09-05T20:43:30.609Z,43.41
2022-09-05T20:43:32.823Z,42.94
2022-09-05T20:46:00.804Z,43.61
2022-09-05T20:54:07.326Z,43.61
2022-09-05T20:54:22.370Z,43.87
2022-09-05T20:54:43.951Z,44.07
2022-09-05T20:57:18.765Z,44.55
2022-09-05T20:59:51.630Z,44.47
2022-09-05T21:02:27.326Z,44.52
2022-09-05T21:05:19.818Z,44.53
2022-09-05T21:08:15.783Z,44.64
2022-09-05T21:10:55.668Z,44.46
2022-09-05T21:13:30.876Z,44.68
2022-09-05T21:16:04.468Z,45.21
2022-09-05T21:18:41.824Z,45.25
2022-09-05T21:21:28.312Z,45.22
2022-09-05T21:24:17.796Z,45.64
2022-09-05T21:26:51.915Z,45.77
2022-09-05T21:29:33.307Z,45.84
2022-09-05T21:32:10.911Z,45.77
2022-09-05T21:34:47.331Z,45.98
2022-09-05T21:37:20.263Z,46.17
2022-09-05T21:40:00.551Z,46.23
2022-09-05T21:44:39.483Z,46.22
2022-09-05T21:47:42.055Z,46.31
2022-09-05T21:48:26.556Z,46.55
2022-09-05T21:51:02.658Z,46.39
2022-09-05T21:56:19.124Z,46.72
2022-09-05T21:59:33.667Z,46.72
2022-09-05T21:59:40.057Z,46.74
2022-09-05T22:02:18.004Z,46.75
2022-09-05T22:04:54.131Z,46.94
2022-09-05T22:07:32.820Z,47.11
2022-09-05T22:10:07.824Z,46.84
2022-09-05T22:12:40.454Z,46.90
2022-09-05T22:15:28.476Z,47.08
2022-09-05T22:18:17.823Z,47.18
2022-09-05T22:21:31.758Z,47.23
2022-09-05T22:23:48.404Z,47.13
2022-09-05T22:26:22.613Z,47.00
2022-09-05T22:28:56.088Z,47.09
2022-09-05T22:31:28.785Z,47.61
2022-09-05T22:34:01.419Z,47.54
2022-09-05T22:36:35.419Z,47.70
2022-09-05T22:39:08.363Z,47.81
2022-09-05T22:41:41.492Z,47.77
2022-09-05T22:44:14.375Z,47.65
2022-09-05T22:46:46.450Z,48.15
2022-09-05T22:49:18.662Z,47.86
2022-09-05T22:51:50.977Z,47.88
2022-09-05T22:54:23.958Z,48.04
2022-09-05T22:56:56.111Z,48.08
2022-09-05T22:59:28.140Z,48.11
2022-09-05T23:02:00.184Z,48.09
2022-09-05T23:04:32.497Z,48.18
2022-09-05T23:07:05.855Z,48.19
2022-09-05T23:09:37.842Z,48.48
2022-09-05T23:12:10.101Z,48.49
2022-09-05T23:14:42.358Z,48.46
2022-09-05T23:17:15.699Z,48.24
2022-09-05T23:19:49.162Z,48.71
2022-09-05T23:22:22.061Z,48.79
2022-09-05T23:24:54.469Z,48.83
2022-09-05T23:27:26.969Z,48.78
2022-09-05T23:30:00.041Z,49.15
2022-09-05T23:32:32.595Z,49.09
2022-09-05T23:35:05.425Z,48.96
2022-09-05T23:37:37.491Z,49.17
2022-09-05T23:40:11.470Z,49.53
2022-09-05T23:42:43.888Z,49.44
2022-09-05T23:45:16.018Z,49.81
2022-09-05T23:47:48.225Z,49.98
2022-09-05T23:51:43.341Z,50.16
2022-09-05T23:54:15.404Z,50.83
2022-09-05T23:56:49.876Z,50.36
2022-09-05T23:59:22.072Z,50.69
